Time;durP1;ratioP1;P1;durP2;ratioP2;P2;SDS_P1;SDS_P2;PMS_P1;PMS_P2;Temp;Humidity;BMP_temperature;BMP_pressure;BME280_temperature;BME280_humidity;BME280_pressure;Samples;Min_cycle;Max_cycle;Signal;HPM_P1;HPM_P2
2022/12/24 00:02:00;;;;;;;25.02;13.35;;;6.80;99.90;;;;;;5018972;28;20093;-83
2022/12/24 00:04:26;;;;;;;23.73;12.57;;;6.80;99.90;;;;;;5017463;28;20053;-82
2022/12/24 00:06:52;;;;;;;25.17;13.82;;;6.80;99.90;;;;;;5012963;28;20037;-83
2022/12/24 00:09:18;;;;;;;25.77;13.15;;;6.80;99.90;;;;;;5014623;28;20407;-83
2022/12/24 00:11:43;;;;;;;24.65;13.32;;;6.80;99.90;;;;;;5012747;28;20042;-83
2022/12/24 00:14:09;;;;;;;26.08;13.40;;;6.80;99.90;;;;;;5011824;28;20075;-83
2022/12/24 00:16:34;;;;;;;25.65;12.88;;;6.80;99.90;;;;;;5021078;28;20049;-83
2022/12/24 00:19:00;;;;;;;24.20;13.27;;;6.80;99.90;;;;;;4999013;28;20784;-83
2022/12/24 00:21:26;;;;;;;21.77;12.20;;;6.80;99.90;;;;;;5021683;28;20479;-83
2022/12/24 00:23:52;;;;;;;22.45;12.05;;;6.80;99.90;;;;;;5018280;28;20103;-83
2022/12/24 00:26:17;;;;;;;26.33;13.25;;;7.00;99.90;;;;;;5012402;28;20053;-83
2022/12/24 00:28:43;;;;;;;24.52;13.35;;;6.80;99.90;;;;;;5018404;28;20064;-83
2022/12/24 00:31:15;;;;;;;23.52;12.65;;;6.80;99.90;;;;;;5014525;28;20079;-83
2022/12/24 00:33:41;;;;;;;22.77;13.23;;;6.80;99.90;;;;;;5012975;28;20049;-82
2022/12/24 00:36:08;;;;;;;25.75;13.57;;;6.80;99.90;;;;;;5014765;28;20184;-82
2022/12/24 00:38:34;;;;;;;26.02;13.10;;;6.90;99.90;;;;;;5029225;28;20049;-82
2022/12/24 00:41:02;;;;;;;24.10;13.13;;;6.80;99.90;;;;;;5011414;28;20232;-82
2022/12/24 00:43:29;;;;;;;22.20;11.85;;;6.80;99.90;;;;;;5023141;28;20034;-82
2022/12/24 00:45:55;;;;;;;23.45;12.77;;;6.80;99.90;;;;;;5027756;28;20040;-82
2022/12/24 00:48:21;;;;;;;23.45;12.35;;;6.90;99.90;;;;;;5027534;28;20037;-82
2022/12/24 00:50:48;;;;;;;22.85;12.38;;;6.90;99.90;;;;;;5029307;28;20130;-82
2022/12/24 00:53:15;;;;;;;25.60;13.02;;;6.90;99.90;;;;;;5031355;28;20041;-82
2022/12/24 00:55:41;;;;;;;22.42;12.25;;;6.90;99.90;;;;;;5016825;28;20030;-82
2022/12/24 00:58:06;;;;;;;22.15;13.25;;;6.80;99.90;;;;;;5023125;28;20124;-82
2022/12/24 01:00:33;;;;;;;29.65;14.23;;;6.90;99.90;;;;;;4997934;28;20045;-82
2022/12/24 01:02:58;;;;;;;25.73;13.50;;;6.90;99.90;;;;;;5037324;28;20069;-82
2022/12/24 01:05:24;;;;;;;22.73;13.40;;;6.90;99.90;;;;;;5025890;28;20520;-82
2022/12/24 01:07:50;;;;;;;23.17;12.93;;;6.90;99.90;;;;;;5019645;28;20049;-82
2022/12/24 01:10:18;;;;;;;23.63;13.00;;;6.90;99.90;;;;;;5031738;28;20046;-82
2022/12/24 01:12:45;;;;;;;24.77;13.35;;;6.90;99.90;;;;;;5014348;28;20720;-82
2022/12/24 01:15:12;;;;;;;29.20;14.18;;;6.90;99.90;;;;;;5043012;28;20049;-82
2022/12/24 01:17:39;;;;;;;24.13;13.55;;;6.90;99.90;;;;;;5018834;28;20056;-82
2022/12/24 01:20:07;;;;;;;26.55;14.20;;;6.90;99.90;;;;;;5025222;28;20056;-82
2022/12/24 01:22:33;;;;;;;23.92;14.05;;;6.90;99.90;;;;;;5020257;28;20068;-82
2022/12/24 01:24:59;;;;;;;31.20;15.38;;;6.90;99.90;;;;;;5016302;28;20042;-82
2022/12/24 01:27:25;;;;;;;29.58;15.25;;;6.90;99.90;;;;;;5020416;28;20100;-82
2022/12/24 01:29:50;;;;;;;25.85;14.27;;;6.90;99.90;;;;;;5035341;28;20400;-82
2022/12/24 01:32:16;;;;;;;24.08;14.02;;;6.90;99.90;;;;;;5020005;28;20064;-82
2022/12/24 01:34:42;;;;;;;29.02;14.52;;;6.90;99.90;;;;;;4999249;28;20046;-82
2022/12/24 01:37:08;;;;;;;24.83;14.65;;;6.90;99.90;;;;;;5020045;28;20041;-82
2022/12/24 01:39:33;;;;;;;25.23;13.80;;;6.90;99.90;;;;;;5021684;28;20033;-83
2022/12/24 01:44:46;;;;;;;26.73;14.93;;;6.80;99.90;;;;;;5026014;28;20038;-82
2022/12/24 01:47:26;;;;;;;30.10;16.98;;;6.90;99.90;;;;;;5022049;28;20354;-82
2022/12/24 01:49:57;;;;;;;28.88;14.95;;;6.90;99.90;;;;;;5004093;28;20075;-82
2022/12/24 01:52:28;;;;;;;38.20;17.90;;;6.90;99.90;;;;;;5016125;28;20033;-82
2022/12/24 01:54:58;;;;;;;29.13;15.68;;;6.90;99.90;;;;;;5013409;28;20073;-83
2022/12/24 01:57:32;;;;;;;31.02;16.60;;;6.90;99.90;;;;;;5025048;28;20045;-82
2022/12/24 02:00:05;;;;;;;28.75;15.88;;;6.90;99.90;;;;;;5006991;28;20052;-82
2022/12/24 02:02:32;;;;;;;30.40;17.38;;;6.90;99.90;;;;;;5013003;28;20564;-82
2022/12/24 02:05:48;;;;;;;30.35;15.88;;;6.90;99.90;;;;;;5024024;28;20047;-82
2022/12/24 02:08:15;;;;;;;27.45;14.73;;;6.90;99.90;;;;;;4979691;28;20052;-82
2022/12/24 02:10:41;;;;;;;30.58;16.13;;;6.90;99.90;;;;;;5015184;28;20046;-82
2022/12/24 02:13:07;;;;;;;28.70;15.68;;;6.90;99.90;;;;;;5013914;28;20053;-83
2022/12/24 02:16:04;;;;;;;30.80;16.80;;;6.90;99.90;;;;;;5019642;28;20492;-82
2022/12/24 02:18:43;;;;;;;29.92;15.35;;;6.70;99.90;;;;;;5023376;28;20065;-82
2022/12/24 02:21:48;;;;;;;30.45;17.13;;;6.90;99.90;;;;;;5018069;28;20049;-82
2022/12/24 02:24:37;;;;;;;29.98;16.30;;;6.90;99.90;;;;;;5010772;28;20133;-82
2022/12/24 02:27:22;;;;;;;33.63;16.77;;;6.90;99.90;;;;;;5023973;28;20096;-82
2022/12/24 02:30:00;;;;;;;30.10;15.68;;;7.10;99.90;;;;;;5019080;28;20052;-82
2022/12/24 02:32:32;;;;;;;31.17;15.30;;;6.90;99.90;;;;;;5014441;28;20038;-83
2022/12/24 02:35:18;;;;;;;28.83;14.57;;;6.90;99.90;;;;;;5016543;28;20045;-82
2022/12/24 02:38:28;;;;;;;29.15;14.85;;;6.90;99.90;;;;;;5012035;28;20374;-82
2022/12/24 02:41:09;;;;;;;34.63;17.13;;;6.90;99.90;;;;;;5018101;28;20077;-82
2022/12/24 02:43:40;;;;;;;35.40;16.80;;;6.90;99.90;;;;;;5013723;28;20092;-82
2022/12/24 02:46:12;;;;;;;35.60;16.27;;;6.90;99.90;;;;;;5029880;28;20126;-82
2022/12/24 02:48:42;;;;;;;33.17;16.95;;;7.00;99.90;;;;;;5017399;28;20030;-82
2022/12/24 02:51:10;;;;;;;38.65;18.92;;;7.00;99.90;;;;;;5030043;28;20056;-82
2022/12/24 02:53:36;;;;;;;37.10;17.95;;;7.00;99.90;;;;;;5015819;28;20541;-82
2022/12/24 02:56:23;;;;;;;36.13;18.17;;;7.00;99.90;;;;;;5013222;28;20041;-82
2022/12/24 02:59:05;;;;;;;38.53;17.80;;;7.00;99.90;;;;;;5026075;28;20576;-82
2022/12/24 03:01:40;;;;;;;36.50;17.38;;;7.10;99.90;;;;;;5008866;28;20053;-82
2022/12/24 03:04:08;;;;;;;35.72;17.95;;;7.10;99.90;;;;;;5015153;28;20092;-82
2022/12/24 03:06:55;;;;;;;36.60;18.08;;;7.20;99.90;;;;;;5015527;28;20041;-82
2022/12/24 03:09:29;;;;;;;34.83;18.30;;;7.20;99.90;;;;;;5013048;28;20056;-82
2022/12/24 03:12:11;;;;;;;34.97;17.50;;;7.30;99.90;;;;;;5018434;28;20041;-82
2022/12/24 03:14:39;;;;;;;35.00;17.40;;;7.30;99.90;;;;;;5013459;28;20772;-82
2022/12/24 03:17:05;;;;;;;33.13;16.45;;;7.30;99.90;;;;;;5013266;28;20052;-82
2022/12/24 03:19:32;;;;;;;29.23;14.88;;;7.40;99.90;;;;;;5001897;28;20068;-82
2022/12/24 03:22:02;;;;;;;33.63;15.23;;;7.40;99.90;;;;;;5019385;28;20088;-82
2022/12/24 03:24:27;;;;;;;35.50;15.43;;;7.80;99.90;;;;;;5005189;28;20044;-83
2022/12/24 03:26:53;;;;;;;32.38;13.90;;;7.50;99.90;;;;;;5018924;28;20037;-83
2022/12/24 03:29:19;;;;;;;36.75;16.13;;;7.60;99.90;;;;;;5014108;28;20060;-83
2022/12/24 03:31:48;;;;;;;31.17;14.20;;;7.70;99.90;;;;;;5015370;28;20488;-83
2022/12/24 03:34:14;;;;;;;25.98;13.43;;;7.70;99.90;;;;;;5018204;28;20065;-83
2022/12/24 03:36:41;;;;;;;29.05;13.45;;;7.70;99.90;;;;;;5018834;28;20547;-83
2022/12/24 03:39:08;;;;;;;30.77;12.18;;;7.80;99.90;;;;;;5019877;28;20041;-82
2022/12/24 03:41:34;;;;;;;33.95;11.88;;;7.80;99.90;;;;;;5033178;28;20084;-83
2022/12/24 03:44:00;;;;;;;28.98;11.30;;;7.90;99.90;;;;;;5004237;28;20041;-82
2022/12/24 03:46:26;;;;;;;29.52;10.05;;;7.90;99.90;;;;;;5010557;28;20377;-83
2022/12/24 03:48:51;;;;;;;30.10;9.07;;;8.40;99.90;;;;;;5009082;28;20100;-83
2022/12/24 03:51:20;;;;;;;34.00;9.30;;;8.10;99.90;;;;;;5015126;28;20542;-83
2022/12/24 03:53:46;;;;;;;27.63;8.43;;;8.00;99.90;;;;;;5013329;28;20069;-83
2022/12/24 03:56:12;;;;;;;32.85;7.72;;;8.10;99.90;;;;;;5015155;28;20046;-83
2022/12/24 03:58:38;;;;;;;24.38;7.15;;;8.10;99.90;;;;;;5016983;28;20055;-83
2022/12/24 04:01:04;;;;;;;27.92;7.18;;;8.10;99.90;;;;;;5016518;28;20056;-83
2022/12/24 04:03:30;;;;;;;30.80;6.38;;;8.10;99.90;;;;;;5010387;28;20041;-83
2022/12/24 04:06:07;;;;;;;34.00;6.68;;;8.10;99.90;;;;;;5017813;28;20037;-83
2022/12/24 04:08:33;;;;;;;33.03;6.05;;;8.20;99.90;;;;;;5014723;28;20037;-83
2022/12/24 04:10:59;;;;;;;26.98;5.75;;;8.20;99.90;;;;;;5015898;28;20049;-83
2022/12/24 04:13:25;;;;;;;29.48;5.53;;;8.20;99.90;;;;;;5011575;28;20067;-83
2022/12/24 04:15:59;;;;;;;34.75;6.65;;;8.20;99.90;;;;;;5013593;28;20046;-82
2022/12/24 04:18:25;;;;;;;25.43;5.20;;;8.20;99.90;;;;;;5009384;28;20209;-83
2022/12/24 04:20:51;;;;;;;35.65;5.03;;;8.20;99.90;;;;;;5025152;28;20305;-83
2022/12/24 04:23:17;;;;;;;32.78;4.88;;;8.20;99.90;;;;;;5013537;28;20044;-82
2022/12/24 04:25:43;;;;;;;24.65;5.50;;;8.20;99.90;;;;;;5010953;28;20068;-83
2022/12/24 04:28:08;;;;;;;30.75;5.13;;;8.20;99.90;;;;;;5013021;28;20042;-83
2022/12/24 04:30:34;;;;;;;30.67;5.80;;;8.20;99.90;;;;;;5016968;28;20701;-83
2022/12/24 04:33:00;;;;;;;31.02;6.05;;;8.20;99.90;;;;;;5010150;28;20041;-83
2022/12/24 04:35:25;;;;;;;32.40;4.82;;;8.10;99.90;;;;;;5019606;28;20435;-82
2022/12/24 04:37:51;;;;;;;29.42;5.30;;;8.20;99.90;;;;;;5017923;28;20038;-82
2022/12/24 04:40:16;;;;;;;30.45;4.82;;;8.10;99.90;;;;;;5013586;28;20584;-83
2022/12/24 04:42:42;;;;;;;29.63;5.07;;;8.10;99.90;;;;;;4996772;28;20046;-83
2022/12/24 04:45:08;;;;;;;36.55;6.03;;;8.00;99.90;;;;;;5013310;28;20041;-83
2022/12/24 04:47:34;;;;;;;29.25;4.80;;;8.00;99.90;;;;;;5012323;28;20038;-82
2022/12/24 04:50:00;;;;;;;24.42;4.47;;;8.20;99.90;;;;;;5008524;28;20056;-83
2022/12/24 04:52:26;;;;;;;26.50;4.95;;;7.90;99.90;;;;;;4991836;28;20073;-82
2022/12/24 04:54:51;;;;;;;31.17;5.60;;;8.30;99.90;;;;;;5010359;28;20080;-83
2022/12/24 04:57:17;;;;;;;29.02;5.07;;;7.90;99.90;;;;;;4998241;28;20032;-83
2022/12/24 04:59:43;;;;;;;40.20;5.10;;;8.00;99.90;;;;;;5009874;28;20120;-83
2022/12/24 05:02:08;;;;;;;36.97;5.47;;;8.00;99.90;;;;;;5008330;28;20037;-82
2022/12/24 05:04:34;;;;;;;31.00;4.90;;;8.00;99.90;;;;;;5012624;28;20046;-83
2022/12/24 05:06:59;;;;;;;38.75;6.13;;;8.00;99.90;;;;;;5011838;28;20112;-83
2022/12/24 05:09:25;;;;;;;34.00;5.57;;;8.00;99.90;;;;;;4999838;28;20034;-82
2022/12/24 05:11:51;;;;;;;43.85;5.65;;;8.00;99.90;;;;;;5008181;28;20495;-82
2022/12/24 05:14:16;;;;;;;36.40;4.47;;;8.00;99.90;;;;;;5008247;28;20064;-82
2022/12/24 05:16:42;;;;;;;30.27;4.72;;;8.10;99.90;;;;;;5027122;28;20432;-83
2022/12/24 05:19:08;;;;;;;40.10;6.53;;;8.10;99.90;;;;;;5007901;28;20077;-82
2022/12/24 05:21:34;;;;;;;40.13;5.68;;;8.10;99.90;;;;;;5015646;28;20060;-83
2022/12/24 05:26:47;;;;;;;37.85;6.10;;;8.10;99.90;;;;;;5008162;28;20042;-82
2022/12/24 05:29:13;;;;;;;31.05;4.90;;;8.10;99.90;;;;;;5026351;28;20033;-82
2022/12/24 05:31:39;;;;;;;31.77;4.70;;;8.10;99.90;;;;;;5016578;28;20128;-82
2022/12/24 05:34:06;;;;;;;34.13;5.35;;;8.10;99.90;;;;;;5011761;28;20057;-82
2022/12/24 05:36:32;;;;;;;36.13;4.95;;;8.10;99.90;;;;;;5015649;28;20041;-83
2022/12/24 05:38:58;;;;;;;40.03;5.22;;;8.10;99.90;;;;;;5018259;28;20042;-82
2022/12/24 05:41:24;;;;;;;38.03;4.78;;;8.10;99.90;;;;;;5014836;28;20458;-82
2022/12/24 05:43:51;;;;;;;31.17;4.30;;;8.40;99.90;;;;;;5015568;28;20042;-82
2022/12/24 05:46:19;;;;;;;32.40;5.15;;;8.10;99.90;;;;;;5012642;28;20045;-82
2022/12/24 05:48:46;;;;;;;38.53;5.97;;;8.10;99.90;;;;;;5014590;28;20112;-82
2022/12/24 05:51:13;;;;;;;46.20;6.90;;;8.10;99.90;;;;;;5010167;28;20111;-82
2022/12/24 05:53:39;;;;;;;46.70;5.60;;;8.10;99.90;;;;;;5017859;28;20045;-82
2022/12/24 05:56:10;;;;;;;38.63;6.22;;;8.10;99.90;;;;;;5018029;28;20052;-82
2022/12/24 05:58:36;;;;;;;36.10;5.47;;;8.10;99.90;;;;;;5019849;28;20026;-83
2022/12/24 06:01:03;;;;;;;33.72;6.10;;;8.10;99.90;;;;;;5015348;28;20049;-83
2022/12/24 06:03:30;;;;;;;41.35;6.07;;;8.10;99.90;;;;;;5012059;28;20622;-83
2022/12/24 06:06:00;;;;;;;34.30;5.30;;;8.10;99.90;;;;;;5017210;28;20083;-84
2022/12/24 06:08:27;;;;;;;40.72;6.00;;;8.10;99.90;;;;;;5019922;28;20384;-82
2022/12/24 06:10:55;;;;;;;33.80;4.85;;;8.10;99.90;;;;;;5012984;28;20492;-82
2022/12/24 06:13:21;;;;;;;43.22;5.75;;;8.10;99.90;;;;;;5006981;28;20041;-83
2022/12/24 06:15:47;;;;;;;47.55;5.65;;;8.10;99.90;;;;;;5018141;28;20037;-82
2022/12/24 06:18:12;;;;;;;33.53;5.13;;;8.10;99.90;;;;;;5021919;28;20037;-83
2022/12/24 06:20:38;;;;;;;32.13;5.63;;;8.10;99.90;;;;;;5015502;28;20057;-83
2022/12/24 06:23:03;;;;;;;37.85;6.68;;;8.50;99.90;;;;;;5020639;28;20476;-82
2022/12/24 06:25:29;;;;;;;32.80;5.60;;;8.10;99.90;;;;;;5012665;28;20042;-83
2022/12/24 06:27:55;;;;;;;35.47;6.25;;;8.10;99.90;;;;;;5016283;28;20097;-84
2022/12/24 06:30:20;;;;;;;41.55;5.35;;;8.10;99.90;;;;;;5026232;28;20048;-83
2022/12/24 06:32:46;;;;;;;43.10;5.13;;;8.20;99.90;;;;;;5016945;28;20423;-82
2022/12/24 06:35:11;;;;;;;41.15;5.82;;;8.10;99.90;;;;;;5018942;28;20427;-82
2022/12/24 06:37:37;;;;;;;40.08;5.60;;;8.10;99.90;;;;;;4999267;28;20439;-83
2022/12/24 06:40:03;;;;;;;33.83;6.45;;;8.00;99.90;;;;;;5013422;28;20424;-82
2022/12/24 06:42:29;;;;;;;31.85;5.10;;;8.00;99.90;;;;;;5014060;28;20485;-82
2022/12/24 06:44:54;;;;;;;41.38;5.78;;;8.00;99.90;;;;;;5014512;28;20045;-82
2022/12/24 06:47:20;;;;;;;42.42;6.18;;;8.00;99.90;;;;;;5019043;28;20103;-82
2022/12/24 06:49:45;;;;;;;33.67;5.65;;;8.00;99.90;;;;;;5020591;28;20121;-83
2022/12/24 06:52:11;;;;;;;41.28;5.80;;;8.00;99.90;;;;;;5021048;28;20124;-82
2022/12/24 06:54:36;;;;;;;39.80;6.15;;;7.90;99.90;;;;;;5018627;28;20124;-82
2022/12/24 06:57:02;;;;;;;37.53;5.85;;;7.90;99.90;;;;;;5014738;28;20034;-82
2022/12/24 06:59:28;;;;;;;32.33;4.85;;;7.90;99.90;;;;;;5017589;28;20049;-82
2022/12/24 07:01:53;;;;;;;42.15;6.10;;;7.80;99.90;;;;;;5015710;28;20044;-82
2022/12/24 07:04:19;;;;;;;33.35;5.28;;;7.80;99.90;;;;;;5024049;28;20041;-82
2022/12/24 07:06:44;;;;;;;37.70;5.63;;;7.80;99.90;;;;;;5021834;28;20043;-82
2022/12/24 07:09:13;;;;;;;37.55;4.93;;;7.80;99.90;;;;;;5012898;28;20440;-83
2022/12/24 07:11:38;;;;;;;41.63;5.88;;;7.80;99.90;;;;;;5018746;28;20041;-82
2022/12/24 07:14:04;;;;;;;37.83;6.65;;;7.80;99.90;;;;;;5016081;28;20049;-82
2022/12/24 07:16:30;;;;;;;37.30;5.72;;;7.80;99.90;;;;;;5012172;28;20048;-83
2022/12/24 07:18:55;;;;;;;44.67;5.85;;;8.10;99.90;;;;;;5020685;28;20433;-82
2022/12/24 07:21:21;;;;;;;38.38;5.85;;;7.80;99.90;;;;;;5020753;28;20046;-82
2022/12/24 07:23:46;;;;;;;42.10;6.40;;;7.80;99.90;;;;;;5020850;28;20042;-83
2022/12/24 07:26:12;;;;;;;49.35;6.55;;;7.80;99.90;;;;;;5016062;28;20045;-82
2022/12/24 07:28:37;;;;;;;53.83;6.28;;;7.80;99.90;;;;;;5013335;28;20392;-82
2022/12/24 07:31:03;;;;;;;41.83;5.65;;;7.80;99.90;;;;;;5019006;28;20033;-84
2022/12/24 07:33:29;;;;;;;41.20;6.25;;;7.80;99.90;;;;;;5018306;28;20072;-84
2022/12/24 07:36:06;;;;;;;52.70;7.20;;;7.90;99.90;;;;;;5008620;28;20077;-83
2022/12/24 07:38:33;;;;;;;45.55;6.38;;;7.90;99.90;;;;;;5011100;28;20038;-84
2022/12/24 07:40:59;;;;;;;37.05;6.07;;;7.90;99.90;;;;;;5012566;28;20108;-84
2022/12/24 07:43:26;;;;;;;44.40;6.65;;;8.30;99.90;;;;;;5014884;28;20400;-84
2022/12/24 07:45:57;;;;;;;51.00;6.80;;;8.00;99.90;;;;;;5015649;28;20029;-84
2022/12/24 07:48:23;;;;;;;39.78;6.68;;;8.00;99.90;;;;;;5009229;28;20045;-83
2022/12/24 07:50:49;;;;;;;46.85;6.72;;;8.10;99.90;;;;;;5022826;28;20045;-83
2022/12/24 07:53:15;;;;;;;42.00;7.20;;;8.10;99.90;;;;;;5019823;28;20045;-83
2022/12/24 07:55:41;;;;;;;41.58;6.50;;;8.10;99.90;;;;;;5010520;28;20045;-83
2022/12/24 07:58:06;;;;;;;38.72;6.50;;;8.10;99.90;;;;;;5016727;28;20049;-82
2022/12/24 08:00:32;;;;;;;34.67;5.78;;;8.20;99.90;;;;;;5015599;28;20087;-83
2022/12/24 08:02:58;;;;;;;41.35;8.02;;;8.10;99.90;;;;;;5011383;28;20433;-83
2022/12/24 08:05:26;;;;;;;36.97;6.65;;;8.20;99.90;;;;;;5018875;28;20033;-83
2022/12/24 08:07:51;;;;;;;51.05;6.60;;;8.20;99.90;;;;;;5025716;28;20041;-84
2022/12/24 08:10:17;;;;;;;45.03;6.72;;;8.20;99.90;;;;;;5015154;28;20445;-83
2022/12/24 08:12:44;;;;;;;43.65;6.63;;;8.20;99.90;;;;;;5014826;28;20077;-83
2022/12/24 08:15:10;;;;;;;44.63;6.43;;;8.20;99.90;;;;;;5015946;28;20495;-83
2022/12/24 08:17:36;;;;;;;36.53;6.15;;;8.20;99.90;;;;;;5013148;28;20042;-83
2022/12/24 08:20:03;;;;;;;44.33;6.60;;;8.10;99.90;;;;;;5013803;28;20064;-83
2022/12/24 08:22:28;;;;;;;37.47;6.45;;;8.30;99.90;;;;;;5013036;28;20242;-82
2022/12/24 08:24:54;;;;;;;55.58;7.28;;;8.20;99.90;;;;;;5010015;28;20471;-83
2022/12/24 08:27:20;;;;;;;40.90;5.88;;;8.00;99.90;;;;;;5033714;28;20160;-83
2022/12/24 08:29:45;;;;;;;44.53;5.97;;;8.00;99.90;;;;;;5007276;28;20045;-83
2022/12/24 08:32:11;;;;;;;42.13;6.93;;;8.00;99.90;;;;;;5014844;28;20087;-82
2022/12/24 08:34:36;;;;;;;38.83;5.97;;;8.00;99.90;;;;;;5018455;28;20087;-82
2022/12/24 08:37:02;;;;;;;38.53;6.30;;;8.00;99.90;;;;;;5014974;28;20175;-83
2022/12/24 08:39:28;;;;;;;46.35;7.55;;;8.00;99.90;;;;;;5021818;28;20048;-83
2022/12/24 08:41:53;;;;;;;36.53;6.95;;;8.00;99.90;;;;;;5012060;28;20042;-83
2022/12/24 08:44:19;;;;;;;52.00;7.25;;;8.00;99.90;;;;;;5014399;28;20038;-83
2022/12/24 08:46:45;;;;;;;42.80;6.47;;;8.00;99.90;;;;;;5016348;28;20488;-82
2022/12/24 08:49:11;;;;;;;49.17;7.05;;;8.10;99.90;;;;;;5019594;28;20123;-82
2022/12/24 08:51:36;;;;;;;43.42;6.65;;;8.10;99.90;;;;;;5021715;28;20125;-82
2022/12/24 08:54:02;;;;;;;39.67;6.75;;;8.20;99.90;;;;;;5016239;28;20073;-82
2022/12/24 08:56:28;;;;;;;50.08;6.60;;;8.20;99.90;;;;;;5019563;28;20220;-82
2022/12/24 08:58:53;;;;;;;48.80;6.55;;;8.30;99.90;;;;;;5015634;28;20030;-82
2022/12/24 09:01:19;;;;;;;48.58;7.32;;;8.30;99.90;;;;;;5014331;28;20038;-83
2022/12/24 09:03:46;;;;;;;42.95;7.28;;;8.30;99.90;;;;;;5012885;28;20765;-82
2022/12/24 09:06:12;;;;;;;39.72;5.45;;;8.40;99.90;;;;;;5017233;28;20095;-82
2022/12/24 09:08:37;;;;;;;38.17;5.43;;;8.40;99.90;;;;;;5018641;28;20041;-83
2022/12/24 09:11:06;;;;;;;45.88;6.15;;;8.50;99.90;;;;;;5017879;28;20127;-82
2022/12/24 09:13:31;;;;;;;43.67;5.63;;;8.50;99.90;;;;;;5024857;28;20048;-82
2022/12/24 09:15:59;;;;;;;32.17;5.28;;;8.50;99.90;;;;;;5026370;28;20037;-81
2022/12/24 09:18:25;;;;;;;33.78;5.75;;;8.60;99.90;;;;;;5021425;28;20046;-82
2022/12/24 09:20:50;;;;;;;41.65;6.10;;;8.60;99.90;;;;;;5021416;28;20042;-82
2022/12/24 09:23:16;;;;;;;51.13;6.45;;;8.70;99.90;;;;;;5019792;28;20547;-82
2022/12/24 09:25:42;;;;;;;34.90;4.78;;;8.70;99.90;;;;;;5018440;28;20042;-82
2022/12/24 09:28:08;;;;;;;44.90;6.03;;;8.70;99.90;;;;;;5021363;28;20034;-83
2022/12/24 09:30:36;;;;;;;33.50;6.18;;;8.70;99.90;;;;;;5019623;28;20061;-84
2022/12/24 09:33:04;;;;;;;35.83;5.80;;;8.80;99.90;;;;;;5019615;28;20053;-84
2022/12/24 09:35:30;;;;;;;41.60;6.47;;;8.90;99.90;;;;;;5020165;28;20044;-87
2022/12/24 09:38:01;;;;;;;33.28;5.45;;;8.90;99.90;;;;;;5018590;28;20409;-83
2022/12/24 09:40:38;;;;;;;39.25;6.18;;;8.90;99.90;;;;;;5017274;28;20057;-82
2022/12/24 09:43:15;;;;;;;33.05;5.75;;;8.90;99.90;;;;;;5019427;28;20057;-82
2022/12/24 09:45:48;;;;;;;42.78;5.85;;;8.90;99.90;;;;;;5020550;28;20032;-82
2022/12/24 09:48:20;;;;;;;37.10;6.25;;;8.90;99.90;;;;;;5025698;28;20069;-82
2022/12/24 09:51:05;;;;;;;27.83;5.00;;;8.90;99.90;;;;;;5018252;28;20045;-83
2022/12/24 09:53:46;;;;;;;24.55;4.40;;;9.00;99.90;;;;;;5017475;28;20065;-81
2022/12/24 09:56:35;;;;;;;32.63;5.30;;;9.00;99.90;;;;;;5017385;28;20046;-81
2022/12/24 09:59:05;;;;;;;31.73;6.10;;;9.10;99.90;;;;;;5021002;28;20120;-82
2022/12/24 10:01:32;;;;;;;33.28;5.57;;;9.10;99.90;;;;;;5017092;28;20412;-81
2022/12/24 10:04:03;;;;;;;38.58;6.28;;;9.10;99.90;;;;;;5027415;28;20034;-81
2022/12/24 10:07:07;;;;;;;47.95;6.10;;;9.10;99.90;;;;;;5017807;28;20064;-81
2022/12/24 10:10:02;;;;;;;40.83;6.53;;;9.10;99.90;;;;;;5000063;28;20049;-81
2022/12/24 10:12:34;;;;;;;33.40;5.43;;;9.10;99.90;;;;;;5014502;28;20042;-81
2022/12/24 10:15:09;;;;;;;47.38;7.03;;;9.20;99.90;;;;;;5014196;28;20049;-82
2022/12/24 10:17:43;;;;;;;46.88;6.35;;;9.20;99.90;;;;;;5016718;28;20053;-82
2022/12/24 10:20:12;;;;;;;32.72;5.47;;;9.20;99.90;;;;;;5024120;28;20096;-82
2022/12/24 10:22:52;;;;;;;28.55;4.90;;;9.20;99.90;;;;;;5034831;28;20040;-83
2022/12/24 10:25:36;;;;;;;27.92;4.82;;;9.40;99.90;;;;;;5024593;28;20440;-85
2022/12/24 10:28:11;;;;;;;26.13;4.57;;;9.20;99.90;;;;;;5009042;28;20076;-82
2022/12/24 10:30:37;;;;;;;30.25;4.25;;;9.20;99.90;;;;;;5022766;28;20163;-82
2022/12/24 10:33:28;;;;;;;22.85;3.88;;;9.20;99.90;;;;;;5001252;28;20041;-82
2022/12/24 10:35:55;;;;;;;23.67;4.03;;;9.20;99.90;;;;;;5020458;28;20050;-83
2022/12/24 10:38:21;;;;;;;20.10;4.43;;;9.20;99.90;;;;;;5020257;28;20052;-82
2022/12/24 10:40:50;;;;;;;25.77;4.05;;;9.20;99.90;;;;;;5015982;28;20042;-82
2022/12/24 10:43:22;;;;;;;24.75;3.72;;;9.20;99.90;;;;;;5017933;28;20061;-84
2022/12/24 10:46:01;;;;;;;30.25;4.13;;;9.20;99.90;;;;;;5013584;28;20042;-83
2022/12/24 10:48:42;;;;;;;22.98;4.20;;;9.50;99.90;;;;;;5023891;28;20033;-82
2022/12/24 10:51:35;;;;;;;21.85;3.67;;;9.30;99.90;;;;;;5021333;28;20069;-81
2022/12/24 10:54:15;;;;;;;22.55;4.43;;;9.30;99.90;;;;;;5013324;28;20038;-82
2022/12/24 10:56:49;;;;;;;22.38;4.78;;;9.30;99.90;;;;;;5016064;28;20113;-82
2022/12/24 10:59:40;;;;;;;21.23;3.37;;;9.30;99.90;;;;;;5015930;28;20045;-81
2022/12/24 11:02:25;;;;;;;29.00;4.35;;;9.30;99.90;;;;;;5022960;28;20045;-82
2022/12/24 11:04:50;;;;;;;30.10;4.63;;;9.20;99.90;;;;;;5019961;28;20124;-83
2022/12/24 11:07:19;;;;;;;25.60;4.18;;;9.50;99.90;;;;;;5016534;28;20199;-82
2022/12/24 11:10:04;;;;;;;30.00;5.72;;;9.50;99.90;;;;;;5026454;28;20045;-82
2022/12/24 11:12:34;;;;;;;27.75;5.18;;;9.50;99.90;;;;;;5021886;28;20512;-82
2022/12/24 11:15:17;;;;;;;29.80;5.60;;;9.40;99.90;;;;;;5013360;28;20037;-83
2022/12/24 11:17:58;;;;;;;34.70;5.18;;;9.40;99.90;;;;;;5026338;28;20049;-82
2022/12/24 11:20:27;;;;;;;24.95;4.88;;;9.40;99.90;;;;;;5024540;28;20164;-82
2022/12/24 11:22:54;;;;;;;32.53;5.07;;;9.40;99.90;;;;;;5023459;28;20038;-83
2022/12/24 11:25:31;;;;;;;27.92;4.95;;;9.40;99.90;;;;;;5013807;28;20030;-82
2022/12/24 11:28:12;;;;;;;26.77;4.78;;;9.50;99.90;;;;;;5011119;28;20050;-82
2022/12/24 11:30:37;;;;;;;33.97;5.65;;;9.50;99.90;;;;;;5015950;28;20050;-82
2022/12/24 11:33:03;;;;;;;24.77;4.40;;;9.50;99.90;;;;;;5014898;28;20038;-82
2022/12/24 11:35:31;;;;;;;28.13;4.82;;;9.60;99.90;;;;;;5013611;28;20135;-82
2022/12/24 11:38:00;;;;;;;33.42;5.43;;;9.80;99.90;;;;;;5013959;28;20057;-82
2022/12/24 11:41:00;;;;;;;30.08;4.45;;;9.60;99.90;;;;;;5026017;28;20102;-82
2022/12/24 11:43:43;;;;;;;22.83;4.28;;;9.60;99.90;;;;;;5014526;28;20080;-82
2022/12/24 11:46:13;;;;;;;34.40;4.25;;;9.60;99.90;;;;;;5014960;28;20033;-83
2022/12/24 11:48:38;;;;;;;31.85;4.93;;;9.60;99.90;;;;;;5038987;28;20120;-82
2022/12/24 11:51:25;;;;;;;30.20;4.18;;;9.60;99.90;;;;;;5019542;28;20567;-81
2022/12/24 11:53:57;;;;;;;24.05;3.70;;;9.60;99.90;;;;;;5014396;28;20038;-82
2022/12/24 11:56:37;;;;;;;20.15;4.05;;;9.60;99.90;;;;;;5013313;28;20061;-81
2022/12/24 11:59:11;;;;;;;25.15;4.65;;;9.60;99.90;;;;;;5016176;28;20041;-82
2022/12/24 12:01:41;;;;;;;;;;;9.60;99.90;;;;;;5019449;28;20044;-82
2022/12/24 12:04:33;;;;;;;26.38;3.83;;;9.60;99.90;;;;;;5020389;28;19925;-81
2022/12/24 12:07:21;;;;;;;24.52;3.97;;;9.60;99.90;;;;;;5006985;28;20046;-82
2022/12/24 12:09:48;;;;;;;31.08;4.05;;;9.60;99.90;;;;;;5012626;28;20072;-82
2022/12/24 12:12:22;;;;;;;30.08;4.13;;;9.60;99.90;;;;;;5019760;28;20091;-82
2022/12/24 12:14:54;;;;;;;26.67;4.25;;;9.60;99.90;;;;;;5008229;28;20050;-82
2022/12/24 12:17:32;;;;;;;25.08;3.90;;;9.60;99.90;;;;;;5013577;28;20052;-82
2022/12/24 12:20:17;;;;;;;27.95;4.60;;;9.80;99.90;;;;;;5019114;28;20057;-82
2022/12/24 12:23:18;;;;;;;26.58;3.40;;;9.60;99.90;;;;;;5009878;28;20108;-82
2022/12/24 12:25:57;;;;;;;25.88;4.75;;;9.60;99.90;;;;;;5008854;28;20065;-83
2022/12/24 12:28:34;;;;;;;23.45;3.95;;;9.80;99.90;;;;;;5012577;28;20120;-82
2022/12/24 12:31:08;;;;;;;26.25;4.13;;;9.80;99.90;;;;;;5013273;28;20052;-82
2022/12/24 12:33:45;;;;;;;26.00;4.28;;;9.60;99.90;;;;;;5010371;28;20038;-83
2022/12/24 12:36:14;;;;;;;27.17;3.72;;;9.60;99.90;;;;;;5012685;28;20077;-82
2022/12/24 12:38:40;;;;;;;23.50;3.95;;;9.60;99.90;;;;;;5016206;28;20041;-82
2022/12/24 12:41:22;;;;;;;28.27;3.92;;;9.60;99.90;;;;;;5015208;28;20129;-83
2022/12/24 12:44:02;;;;;;;24.23;3.80;;;9.60;99.90;;;;;;5014154;28;20099;-83
2022/12/24 12:46:40;;;;;;;26.00;4.95;;;9.60;99.90;;;;;;5018622;28;20557;-82
2022/12/24 12:49:41;;;;;;;30.70;3.90;;;9.60;99.90;;;;;;5008671;28;20065;-83
2022/12/24 12:52:40;;;;;;;24.10;3.95;;;9.60;99.90;;;;;;5016101;28;20072;-82
2022/12/24 12:55:33;;;;;;;20.60;3.72;;;9.60;99.90;;;;;;5017157;28;20427;-81
2022/12/24 12:58:08;;;;;;;23.23;4.25;;;9.60;99.90;;;;;;5025969;28;20050;-80
2022/12/24 13:00:39;;;;;;;20.52;3.67;;;9.60;99.90;;;;;;5024260;28;20217;-81
2022/12/24 13:03:42;;;;;;;21.90;3.75;;;9.60;99.90;;;;;;5010163;28;20041;-82
2022/12/24 13:06:33;;;;;;;17.48;3.00;;;9.50;99.90;;;;;;5000286;28;20069;-86